createdAt,value
2018-09-19T00:00:42.546Z,0.00
2018-09-19T00:01:42.542Z,0.00
2018-09-19T00:02:42.534Z,0.00
2018-09-19T00:03:42.555Z,0.00
2018-09-19T00:04:42.587Z,0.00
2018-09-19T00:05:42.491Z,0.00
2018-09-19T00:06:42.488Z,0.00
2018-09-19T00:07:42.478Z,0.00
2018-09-19T00:08:42.469Z,0.00
2018-09-19T00:09:42.468Z,0.00
2018-09-19T00:10:42.488Z,0.00
2018-09-19T00:11:42.432Z,0.00
2018-09-19T00:12:42.427Z,0.00
2018-09-19T00:13:42.405Z,0.00
2018-09-19T00:14:42.410Z,0.00
2018-09-19T00:15:42.392Z,0.00
2018-09-19T00:16:42.408Z,0.00
2018-09-19T00:17:42.366Z,0.00
2018-09-19T00:18:42.362Z,0.00
2018-09-19T00:19:42.358Z,0.00
2018-09-19T00:20:42.337Z,0.00
2018-09-19T00:21:42.320Z,0.00
2018-09-19T00:22:42.357Z,0.00
2018-09-19T00:23:42.298Z,0.00
2018-09-19T00:24:42.330Z,0.00
2018-09-19T00:25:42.288Z,0.00
2018-09-19T00:26:42.274Z,0.00
2018-09-19T00:27:42.260Z,0.00
2018-09-19T00:28:42.306Z,0.00
2018-09-19T00:29:42.294Z,0.00
2018-09-19T00:30:42.234Z,0.00
2018-09-19T00:31:42.215Z,0.00
2018-09-19T00:32:42.200Z,0.00
2018-09-19T00:33:42.191Z,0.00
2018-09-19T00:34:42.344Z,0.00
2018-09-19T00:35:42.172Z,0.00
2018-09-19T00:36:42.167Z,0.00
2018-09-19T00:37:42.190Z,0.00
2018-09-19T00:38:42.136Z,0.00
2018-09-19T00:39:42.141Z,0.00
2018-09-19T00:40:42.160Z,0.00
2018-09-19T00:41:42.101Z,0.00
2018-09-19T00:42:42.094Z,0.00
2018-09-19T00:43:42.084Z,0.00
2018-09-19T00:44:42.087Z,0.00
2018-09-19T00:45:42.060Z,0.00
2018-09-19T00:46:42.120Z,0.00
2018-09-19T00:47:42.041Z,0.00
2018-09-19T00:48:42.027Z,0.00
2018-09-19T00:49:42.042Z,0.00
2018-09-19T00:50:42.015Z,0.00
2018-09-19T00:51:42.004Z,0.00
2018-09-19T00:52:42.017Z,0.00
2018-09-19T00:53:42.038Z,0.00
2018-09-19T00:54:41.991Z,0.00
2018-09-19T00:55:41.951Z,0.00
2018-09-19T00:56:41.945Z,0.00
2018-09-19T00:57:41.936Z,0.00
2018-09-19T00:58:41.986Z,0.00
2018-09-19T00:59:41.911Z,0.00
2018-09-19T01:00:41.941Z,0.00
2018-09-19T01:01:41.881Z,0.00
2018-09-19T01:02:41.879Z,0.00
2018-09-19T01:03:41.891Z,0.00
2018-09-19T01:04:41.874Z,0.00
2018-09-19T01:05:41.867Z,0.00
2018-09-19T01:06:41.836Z,0.00
2018-09-19T01:07:41.841Z,0.00
2018-09-19T01:08:41.817Z,0.00
2018-09-19T01:09:41.806Z,0.00
2018-09-19T01:10:41.811Z,0.00
2018-09-19T01:11:41.774Z,0.00
2018-09-19T01:12:41.811Z,0.00
2018-09-19T01:13:41.752Z,0.00
2018-09-19T01:14:41.755Z,0.00
2018-09-19T01:15:41.747Z,0.00
2018-09-19T01:16:41.743Z,0.00
2018-09-19T01:17:41.710Z,0.00
2018-09-19T01:18:41.733Z,0.00
2018-09-19T01:19:41.696Z,0.00
2018-09-19T01:20:41.695Z,0.00
2018-09-19T01:21:41.664Z,0.00
2018-09-19T01:22:41.664Z,0.00
2018-09-19T01:23:41.651Z,0.00
2018-09-19T01:24:41.674Z,0.00
2018-09-19T01:25:41.659Z,0.00
2018-09-19T01:26:41.618Z,0.00
2018-09-19T01:27:41.603Z,0.00
2018-09-19T01:28:41.590Z,0.00
2018-09-19T01:29:41.594Z,0.00
2018-09-19T01:30:41.632Z,0.00
2018-09-19T01:31:41.560Z,0.00
2018-09-19T01:32:41.545Z,0.00
2018-09-19T01:33:41.536Z,0.00
2018-09-19T01:34:41.529Z,0.00
2018-09-19T01:35:41.534Z,0.00
2018-09-19T01:36:41.550Z,0.00
2018-09-19T01:37:41.495Z,0.00
2018-09-19T01:38:41.487Z,0.00
2018-09-19T01:39:41.488Z,0.00
2018-09-19T01:40:41.472Z,0.00
2018-09-19T01:41:41.455Z,0.00
2018-09-19T01:42:41.564Z,0.00
2018-09-19T01:43:41.433Z,0.00
2018-09-19T01:44:41.413Z,0.00
2018-09-19T01:45:41.441Z,0.00
2018-09-19T01:46:41.400Z,0.00
2018-09-19T01:47:41.385Z,0.00
2018-09-19T01:48:41.463Z,0.00
2018-09-19T01:49:41.364Z,0.00
2018-09-19T01:50:41.347Z,0.00
2018-09-19T01:51:41.351Z,0.00
2018-09-19T01:52:41.326Z,0.00
2018-09-19T01:53:41.317Z,0.00
2018-09-19T01:54:41.327Z,0.00
2018-09-19T01:55:41.293Z,0.00
2018-09-19T01:56:41.297Z,0.00
2018-09-19T01:57:41.281Z,0.00
2018-09-19T01:58:41.259Z,0.00
2018-09-19T01:59:41.261Z,0.00
2018-09-19T02:00:41.265Z,0.00
2018-09-19T02:01:41.284Z,0.00
2018-09-19T02:02:41.216Z,0.00
2018-09-19T02:03:41.216Z,0.00
2018-09-19T02:04:41.238Z,0.00
2018-09-19T02:05:41.187Z,0.00
2018-09-19T02:06:41.190Z,0.00
2018-09-19T02:07:41.158Z,0.00
2018-09-19T02:08:41.159Z,0.00
2018-09-19T02:09:41.144Z,0.00
2018-09-19T02:10:41.170Z,0.00
2018-09-19T02:11:41.133Z,0.00
2018-09-19T02:12:41.111Z,0.00
2018-09-19T02:13:41.101Z,0.00
2018-09-19T02:14:41.096Z,0.00
2018-09-19T02:15:41.072Z,0.00
2018-09-19T02:16:41.176Z,0.00
2018-09-19T02:17:41.100Z,0.00
2018-09-19T02:18:41.046Z,0.00
2018-09-19T02:19:41.032Z,0.00
2018-09-19T02:20:41.021Z,0.00
2018-09-19T02:21:41.027Z,0.00
2018-09-19T02:22:41.038Z,0.00
2018-09-19T02:23:41.005Z,0.00
2018-09-19T02:24:40.981Z,0.00
2018-09-19T02:25:40.963Z,0.00
2018-09-19T02:26:40.973Z,0.00
2018-09-19T02:27:40.968Z,0.00
2018-09-19T02:28:41.090Z,0.00
2018-09-19T02:29:40.935Z,0.00
2018-09-19T02:30:40.927Z,0.00
2018-09-19T02:31:40.938Z,0.00
2018-09-19T02:32:40.885Z,0.00
2018-09-19T02:33:40.880Z,0.00
2018-09-19T02:34:40.873Z,0.00
2018-09-19T02:35:40.880Z,0.00
2018-09-19T02:36:40.845Z,0.00
2018-09-19T02:37:40.846Z,0.00
2018-09-19T02:38:40.830Z,0.00
2018-09-19T02:39:40.812Z,0.00
2018-09-19T02:40:40.821Z,0.00
2018-09-19T02:41:40.789Z,0.00
2018-09-19T02:42:40.881Z,0.00
2018-09-19T02:43:40.774Z,0.00
2018-09-19T02:44:40.759Z,0.00
2018-09-19T02:45:40.753Z,0.00
2018-09-19T02:46:40.743Z,0.00
2018-09-19T02:47:40.772Z,0.00
2018-09-19T02:48:40.753Z,0.00
2018-09-19T02:49:40.703Z,0.00
2018-09-19T02:50:40.703Z,0.00
2018-09-19T02:51:40.677Z,0.00
2018-09-19T02:52:40.687Z,0.00
2018-09-19T02:53:40.667Z,0.00
2018-09-19T02:54:40.713Z,0.00
2018-09-19T02:55:40.648Z,0.00
2018-09-19T02:56:40.625Z,0.00
2018-09-19T02:57:40.633Z,0.00
2018-09-19T02:58:40.605Z,0.00
2018-09-19T02:59:40.595Z,0.00
2018-09-19T03:00:40.653Z,0.00
2018-09-19T03:01:40.572Z,0.00
2018-09-19T03:02:40.583Z,0.00
2018-09-19T03:03:40.553Z,0.00
2018-09-19T03:04:40.548Z,0.00
2018-09-19T03:05:40.531Z,0.00
2018-09-19T03:06:40.578Z,0.00
2018-09-19T03:07:40.534Z,0.00
2018-09-19T03:08:40.501Z,0.00
2018-09-19T03:09:40.520Z,0.00
2018-09-19T03:10:40.480Z,0.00
2018-09-19T03:11:40.471Z,0.00
2018-09-19T03:12:40.517Z,0.00
2018-09-19T03:13:40.446Z,0.00
2018-09-19T03:14:40.428Z,0.00
2018-09-19T03:15:40.419Z,0.00
2018-09-19T03:16:40.400Z,0.00
2018-09-19T03:17:40.555Z,0.00
2018-09-19T03:18:40.437Z,0.00
2018-09-19T03:19:40.412Z,0.00
2018-09-19T03:20:40.383Z,0.00
2018-09-19T03:21:40.353Z,0.00
2018-09-19T03:22:40.402Z,0.00
2018-09-19T03:23:40.331Z,0.00
2018-09-19T03:24:40.391Z,0.00
2018-09-19T03:25:40.317Z,0.00
2018-09-19T03:26:40.301Z,0.00
2018-09-19T03:27:40.282Z,0.00
2018-09-19T03:28:40.288Z,0.00
2018-09-19T03:29:40.260Z,0.00
2018-09-19T03:30:40.300Z,0.00
2018-09-19T03:31:40.240Z,0.00
2018-09-19T03:32:40.231Z,0.00
2018-09-19T03:33:40.242Z,0.00
2018-09-19T03:34:40.212Z,0.00
2018-09-19T03:35:40.246Z,0.00
2018-09-19T03:36:40.184Z,0.00
2018-09-19T03:37:40.170Z,0.00
2018-09-19T03:38:40.229Z,0.00
2018-09-19T03:39:40.162Z,0.00
2018-09-19T03:40:40.137Z,0.00
2018-09-19T03:41:40.167Z,0.00
2018-09-19T03:42:40.116Z,0.00
2018-09-19T03:43:40.132Z,0.00
2018-09-19T03:44:40.104Z,0.00
2018-09-19T03:45:40.084Z,0.00
2018-09-19T03:46:40.135Z,0.00
2018-09-19T03:47:40.063Z,0.00
2018-09-19T03:48:40.075Z,0.00
2018-09-19T03:49:40.043Z,0.00
2018-09-19T03:50:40.036Z,0.00
2018-09-19T03:51:40.014Z,0.00
2018-09-19T03:52:40.057Z,0.00
2018-09-19T03:53:40.017Z,0.00
2018-09-19T03:54:39.985Z,0.00
2018-09-19T03:55:40.022Z,0.00
2018-09-19T03:56:39.964Z,0.00
2018-09-19T03:57:39.947Z,0.00
2018-09-19T03:58:40.133Z,0.00
2018-09-19T03:59:39.967Z,0.00
2018-09-19T04:00:39.966Z,0.00
2018-09-19T04:01:39.949Z,0.00
2018-09-19T04:02:39.892Z,0.00
2018-09-19T04:03:39.884Z,0.00
2018-09-19T04:04:39.959Z,0.00
2018-09-19T04:05:39.873Z,0.00
2018-09-19T04:06:39.868Z,0.00
2018-09-19T04:07:39.842Z,0.00
2018-09-19T04:08:39.827Z,0.00
2018-09-19T04:09:39.847Z,0.00
2018-09-19T04:10:39.862Z,0.00
2018-09-19T04:11:39.809Z,0.00
2018-09-19T04:12:39.781Z,0.00
2018-09-19T04:13:39.783Z,0.00
2018-09-19T04:14:39.887Z,0.00
2018-09-19T04:15:39.758Z,0.00
2018-09-19T04:16:39.803Z,0.00
2018-09-19T04:17:39.779Z,0.00
2018-09-19T04:18:39.722Z,0.00
2018-09-19T04:19:39.765Z,0.00
2018-09-19T04:20:39.717Z,0.00
2018-09-19T04:21:39.682Z,0.00
2018-09-19T04:22:39.720Z,0.00
2018-09-19T04:23:39.664Z,0.00
2018-09-19T04:24:39.665Z,0.00
2018-09-19T04:25:39.650Z,0.00
2018-09-19T04:26:39.639Z,0.00
2018-09-19T04:27:39.627Z,0.00
2018-09-19T04:28:39.659Z,0.00
2018-09-19T04:29:39.628Z,0.00
2018-09-19T04:30:39.594Z,0.00
2018-09-19T04:31:39.584Z,0.00
2018-09-19T04:32:39.570Z,0.00
2018-09-19T04:33:39.559Z,0.00
2018-09-19T04:34:39.594Z,0.00
2018-09-19T04:35:39.568Z,0.00
2018-09-19T04:36:39.556Z,0.00
2018-09-19T04:37:39.506Z,0.00
2018-09-19T04:38:39.503Z,0.00
2018-09-19T04:39:39.499Z,4.00
2018-09-19T04:40:39.617Z,4.00
2018-09-19T04:41:39.486Z,0.00
2018-09-19T04:42:39.451Z,4.00
2018-09-19T04:43:39.480Z,4.00
2018-09-19T04:44:39.479Z,4.00
2018-09-19T04:45:39.425Z,8.00
2018-09-19T04:46:39.506Z,8.00
2018-09-19T04:47:39.396Z,8.00
2018-09-19T04:48:39.410Z,8.00
2018-09-19T04:49:39.396Z,12.00
2018-09-19T04:50:39.377Z,16.00
2018-09-19T04:51:39.546Z,16.00
2018-09-19T04:52:39.374Z,20.00
2018-09-19T04:53:39.339Z,28.00
2018-09-19T04:54:39.323Z,32.00
2018-09-19T04:55:39.332Z,36.00
2018-09-19T04:56:39.973Z,40.00
2018-09-19T04:57:39.292Z,48.00
2018-09-19T04:58:39.307Z,56.00
2018-09-19T04:59:39.273Z,68.00
2018-09-19T05:00:39.301Z,80.00
2018-09-19T05:01:39.277Z,96.00
2018-09-19T05:02:39.252Z,108.00
2018-09-19T05:03:39.225Z,128.00
2018-09-19T05:04:39.253Z,144.00
2018-09-19T05:05:39.288Z,164.00
2018-09-19T05:06:39.202Z,188.00
2018-09-19T05:07:39.226Z,208.00
2018-09-19T05:08:39.187Z,232.00
2018-09-19T05:09:39.166Z,260.00
2018-09-19T05:10:39.243Z,288.00
2018-09-19T05:11:39.138Z,320.00
2018-09-19T05:12:39.128Z,352.00
2018-09-19T05:13:39.175Z,388.00
2018-09-19T05:14:39.100Z,424.00
2018-09-19T05:15:39.148Z,460.00
2018-09-19T05:16:39.081Z,504.00
2018-09-19T05:17:39.077Z,544.00
2018-09-19T05:18:39.068Z,584.00
2018-09-19T05:19:39.073Z,632.00
2018-09-19T05:20:39.053Z,680.00
2018-09-19T05:21:39.071Z,724.00
2018-09-19T05:22:39.050Z,776.00
2018-09-19T05:23:39.023Z,824.00
2018-09-19T05:24:38.993Z,880.00
2018-09-19T05:25:39.004Z,932.00
2018-09-19T05:26:38.980Z,988.00
2018-09-19T05:27:39.039Z,1044.00
2018-09-19T05:28:38.962Z,1100.00
2018-09-19T05:29:38.936Z,1152.00
2018-09-19T05:30:38.940Z,1216.00
2018-09-19T05:31:39.040Z,1272.00
2018-09-19T05:32:38.921Z,1328.00
2018-09-19T05:33:39.038Z,1388.00
2018-09-19T05:34:38.886Z,1452.00
2018-09-19T05:35:38.908Z,1508.00
2018-09-19T05:36:38.934Z,1572.00
2018-09-19T05:37:38.869Z,1640.00
2018-09-19T05:38:38.872Z,1708.00
2018-09-19T05:39:38.863Z,1776.00
2018-09-19T05:40:38.820Z,1848.00
2018-09-19T05:41:38.830Z,1920.00
2018-09-19T05:42:38.794Z,1996.00
2018-09-19T05:43:38.832Z,2072.00
2018-09-19T05:44:38.780Z,2152.00
2018-09-19T05:45:38.806Z,2236.00
2018-09-19T05:46:38.771Z,2320.00
2018-09-19T05:47:38.744Z,2408.00
2018-09-19T05:48:38.749Z,2492.00
2018-09-19T05:49:38.728Z,2576.00
2018-09-19T05:50:38.707Z,2656.00
2018-09-19T05:51:38.779Z,2744.00
2018-09-19T05:52:38.691Z,2832.00
2018-09-19T05:53:38.675Z,2924.00
2018-09-19T05:54:38.706Z,3020.00
2018-09-19T05:55:38.675Z,3116.00
2018-09-19T05:56:38.675Z,3212.00
2018-09-19T05:57:38.680Z,3308.00
2018-09-19T05:58:38.621Z,3404.00
2018-09-19T05:59:38.650Z,3488.00
2018-09-19T06:00:38.600Z,3568.00
2018-09-19T06:01:38.658Z,3652.00
2018-09-19T06:02:38.584Z,3736.00
2018-09-19T06:03:38.624Z,3836.00
2018-09-19T06:04:38.559Z,3968.00
2018-09-19T06:05:38.568Z,4076.00
2018-09-19T06:06:38.579Z,4176.00
2018-09-19T06:07:38.539Z,4248.00
2018-09-19T06:08:38.516Z,4324.00
2018-09-19T06:09:38.553Z,4416.00
2018-09-19T06:10:38.501Z,4524.00
2018-09-19T06:11:38.494Z,4656.00
2018-09-19T06:12:38.475Z,4820.00
2018-09-19T06:13:38.466Z,4968.00
2018-09-19T06:14:38.442Z,5080.00
2018-09-19T06:15:38.513Z,5156.00
2018-09-19T06:16:38.450Z,5216.00
2018-09-19T06:17:38.442Z,5240.00
2018-09-19T06:18:38.406Z,5216.00
2018-09-19T06:19:38.394Z,5164.00
2018-09-19T06:20:38.407Z,5188.00
2018-09-19T06:21:38.405Z,5364.00
2018-09-19T06:22:38.375Z,5596.00
2018-09-19T06:23:38.354Z,5720.00
2018-09-19T06:24:38.340Z,5764.00
2018-09-19T06:25:38.336Z,5812.00
2018-09-19T06:26:38.320Z,5840.00
2018-09-19T06:27:38.357Z,5872.00
2018-09-19T06:28:38.298Z,5936.00
2018-09-19T06:29:38.279Z,6032.00
2018-09-19T06:30:38.268Z,6160.00
2018-09-19T06:31:38.258Z,6252.00
2018-09-19T06:32:38.275Z,6332.00
2018-09-19T06:33:38.275Z,6412.00
2018-09-19T06:34:38.237Z,6452.00
2018-09-19T06:35:38.212Z,6508.00
2018-09-19T06:36:38.209Z,6552.00
2018-09-19T06:37:38.211Z,6584.00
2018-09-19T06:38:38.177Z,6640.00
2018-09-19T06:39:38.237Z,6688.00
2018-09-19T06:40:38.267Z,6740.00
2018-09-19T06:41:38.174Z,6764.00
2018-09-19T06:42:38.159Z,6788.00
2018-09-19T06:43:38.122Z,6852.00
2018-09-19T06:44:38.112Z,6904.00
2018-09-19T06:45:38.188Z,6792.00
2018-09-19T06:46:38.095Z,6736.00
2018-09-19T06:47:38.096Z,6712.00
2018-09-19T06:48:38.075Z,6644.00
2018-09-19T06:49:38.057Z,6584.00
2018-09-19T06:50:38.051Z,6540.00
2018-09-19T06:51:38.071Z,6520.00
2018-09-19T06:52:38.044Z,6516.00
2018-09-19T06:53:38.017Z,6508.00
2018-09-19T06:54:38.008Z,6532.00
2018-09-19T06:55:38.001Z,6576.00
2018-09-19T06:56:38.062Z,6628.00
2018-09-19T06:57:38.040Z,6680.00
2018-09-19T06:58:37.963Z,6736.00
2018-09-19T06:59:37.988Z,6756.00
2018-09-19T07:00:37.944Z,6784.00
2018-09-19T07:01:37.927Z,6832.00
2018-09-19T07:02:37.949Z,6884.00
2018-09-19T07:03:37.931Z,6952.00
2018-09-19T07:04:37.897Z,7028.00
2018-09-19T07:05:37.930Z,7072.00
2018-09-19T07:06:37.871Z,7144.00
2018-09-19T07:07:37.865Z,7196.00
2018-09-19T07:08:37.865Z,7220.00
2018-09-19T07:09:37.871Z,7248.00
2018-09-19T07:10:37.870Z,7272.00
2018-09-19T07:11:37.816Z,7300.00
2018-09-19T07:12:37.806Z,7308.00
2018-09-19T07:13:37.807Z,7336.00
2018-09-19T07:14:37.780Z,7364.00
2018-09-19T07:15:37.796Z,7392.00
2018-09-19T07:16:37.761Z,7436.00
2018-09-19T07:17:37.753Z,7472.00
2018-09-19T07:18:37.775Z,7508.00
2018-09-19T07:19:37.729Z,7548.00
2018-09-19T07:20:37.722Z,7568.00
2018-09-19T07:21:37.745Z,7596.00
2018-09-19T07:22:37.695Z,7620.00
2018-09-19T07:23:37.738Z,7644.00
2018-09-19T07:24:37.674Z,7676.00
2018-09-19T07:25:37.695Z,7700.00
2018-09-19T07:26:37.653Z,7732.00
2018-09-19T07:27:37.678Z,7768.00
2018-09-19T07:28:38.013Z,7808.00
2018-09-19T07:29:37.620Z,7856.00
2018-09-19T07:30:37.608Z,7896.00
2018-09-19T07:31:37.597Z,7944.00
2018-09-19T07:32:37.588Z,8000.00
2018-09-19T07:33:37.689Z,8052.00
2018-09-19T07:34:37.566Z,8100.00
2018-09-19T07:35:37.556Z,8140.00
2018-09-19T07:36:37.553Z,8176.00
2018-09-19T07:37:37.532Z,8208.00
2018-09-19T07:38:37.536Z,8244.00
2018-09-19T07:39:37.531Z,8288.00
2018-09-19T07:40:37.505Z,8320.00
2018-09-19T07:41:37.524Z,8368.00
2018-09-19T07:42:37.479Z,8392.00
2018-09-19T07:43:37.479Z,8436.00
2018-09-19T07:44:37.458Z,8468.00
2018-09-19T07:45:37.469Z,8512.00
2018-09-19T07:46:37.460Z,8540.00
2018-09-19T07:47:37.420Z,8580.00
2018-09-19T07:48:37.424Z,8608.00
2018-09-19T07:49:37.399Z,8632.00
2018-09-19T07:50:37.395Z,8648.00
2018-09-19T07:51:37.380Z,8664.00
2018-09-19T07:52:37.378Z,8672.00
2018-09-19T07:53:37.370Z,8700.00
2018-09-19T07:54:37.406Z,8724.00
2018-09-19T07:55:37.338Z,8736.00
2018-09-19T07:56:37.323Z,8752.00
2018-09-19T07:57:37.313Z,8776.00
2018-09-19T07:58:37.343Z,8816.00
2018-09-19T07:59:37.308Z,8856.00
2018-09-19T08:00:37.387Z,8896.00
2018-09-19T08:01:37.270Z,8940.00
2018-09-19T08:02:37.256Z,8980.00
2018-09-19T08:03:38.064Z,9012.00
2018-09-19T08:04:37.234Z,9036.00
2018-09-19T08:05:37.225Z,9064.00
2018-09-19T08:06:37.211Z,9088.00
2018-09-19T08:07:37.199Z,9116.00
2018-09-19T08:08:37.191Z,9136.00
2018-09-19T08:09:37.227Z,9156.00
2018-09-19T08:10:37.170Z,9180.00
2018-09-19T08:11:37.159Z,9208.00
2018-09-19T08:12:37.150Z,9228.00
2018-09-19T08:13:37.137Z,9244.00
2018-09-19T08:14:37.143Z,9268.00
2018-09-19T08:15:37.169Z,9296.00
2018-09-19T08:16:37.110Z,9312.00
2018-09-19T08:17:37.093Z,9340.00
2018-09-19T08:18:37.084Z,9340.00
2018-09-19T08:19:37.088Z,9356.00
2018-09-19T08:20:37.108Z,9376.00
2018-09-19T08:21:37.070Z,9388.00
2018-09-19T08:22:37.113Z,9400.00
2018-09-19T08:23:37.062Z,9416.00
2018-09-19T08:24:37.031Z,9432.00
2018-09-19T08:25:37.004Z,9520.00
2018-09-19T08:26:36.994Z,9576.00
2018-09-19T08:27:37.024Z,9628.00
2018-09-19T08:28:36.972Z,9708.00
2018-09-19T08:29:36.975Z,9896.00
2018-09-19T08:30:36.949Z,12180.00
2018-09-19T08:31:36.939Z,22464.00
2018-09-19T08:32:36.927Z,30720.00
2018-09-19T08:33:36.946Z,32736.00
2018-09-19T08:34:36.920Z,35040.00
2018-09-19T08:35:36.896Z,36128.00
2018-09-19T08:36:36.884Z,32864.00
2018-09-19T08:37:36.874Z,31456.00
2018-09-19T08:38:36.863Z,36128.00
2018-09-19T08:39:36.892Z,39840.00
2018-09-19T08:40:36.847Z,39712.00
2018-09-19T08:41:36.842Z,39808.00
2018-09-19T08:42:36.824Z,40288.00
2018-09-19T08:43:36.810Z,40576.00
2018-09-19T08:44:36.815Z,41152.00
2018-09-19T08:45:36.816Z,40544.00
2018-09-19T08:46:36.797Z,41088.00
2018-09-19T08:47:36.787Z,42048.00
2018-09-19T08:48:36.776Z,42208.00
2018-09-19T08:49:36.770Z,41408.00
2018-09-19T08:50:36.786Z,24480.00
2018-09-19T08:51:36.721Z,12520.00
2018-09-19T08:52:36.711Z,28192.00
2018-09-19T08:53:36.700Z,43104.00
2018-09-19T08:54:36.730Z,42304.00
2018-09-19T08:55:36.720Z,42464.00
2018-09-19T08:56:36.670Z,43200.00
2018-09-19T08:57:36.656Z,44224.00
2018-09-19T08:58:36.648Z,45408.00
2018-09-19T08:59:36.652Z,45056.00
2018-09-19T09:00:36.625Z,43744.00
2018-09-19T09:01:36.624Z,45664.00
2018-09-19T09:02:36.686Z,46240.00
2018-09-19T09:03:36.664Z,46656.00
2018-09-19T09:04:36.606Z,46816.00
2018-09-19T09:05:36.585Z,46720.00
2018-09-19T09:06:36.571Z,47680.00
2018-09-19T09:07:36.595Z,48288.00
2018-09-19T09:08:36.561Z,48512.00
2018-09-19T09:09:36.677Z,49728.00
2018-09-19T09:10:36.572Z,50528.00
2018-09-19T09:11:36.521Z,50912.00
2018-09-19T09:12:36.531Z,51776.00
2018-09-19T09:13:36.501Z,51424.00
2018-09-19T09:14:36.489Z,49536.00
2018-09-19T09:15:36.505Z,46240.00
2018-09-19T09:16:36.487Z,42080.00
2018-09-19T09:17:36.445Z,41792.00
2018-09-19T09:18:36.453Z,44704.00
2018-09-19T09:19:36.431Z,45952.00
2018-09-19T09:20:36.558Z,45536.00
2018-09-19T09:21:36.418Z,39040.00
2018-09-19T09:22:36.406Z,20448.00
2018-09-19T09:23:36.404Z,19616.00
2018-09-19T09:24:36.382Z,40000.00
2018-09-19T09:25:36.376Z,46400.00
2018-09-19T09:26:36.357Z,43968.00
2018-09-19T09:27:36.401Z,44256.00
2018-09-19T09:28:36.360Z,47424.00
2018-09-19T09:29:36.325Z,47008.00
2018-09-19T09:30:36.328Z,48736.00
2018-09-19T09:31:36.297Z,48928.00
2018-09-19T09:32:36.302Z,47648.00
2018-09-19T09:33:36.287Z,47712.00
2018-09-19T09:34:36.330Z,48992.00
2018-09-19T09:35:36.291Z,50592.00
2018-09-19T09:36:36.255Z,50976.00
2018-09-19T09:37:36.240Z,50240.00
2018-09-19T09:38:36.265Z,51552.00
2018-09-19T09:39:36.225Z,53088.00
2018-09-19T09:40:36.332Z,52576.00
2018-09-19T09:41:36.212Z,51680.00
2018-09-19T09:42:36.197Z,52512.00
2018-09-19T09:43:36.253Z,54848.00
2018-09-19T09:44:36.192Z,55520.00
2018-09-19T09:45:36.167Z,55168.00
2018-09-19T09:46:36.162Z,54560.00
2018-09-19T09:47:36.188Z,47424.00
2018-09-19T09:48:36.119Z,23040.00
2018-09-19T09:49:36.105Z,26176.00
2018-09-19T09:50:36.114Z,47744.00
2018-09-19T09:51:36.134Z,51872.00
2018-09-19T09:52:36.079Z,53344.00
2018-09-19T09:53:36.081Z,54688.00
2018-09-19T09:54:36.065Z,54784.00
2018-09-19T09:55:36.139Z,54560.00
2018-09-19T09:56:36.049Z,55296.00
2018-09-19T09:57:36.043Z,56736.00
2018-09-19T09:58:36.035Z,56672.00
2018-09-19T09:59:36.019Z,56128.00
2018-09-19T10:00:36.004Z,56032.00
2018-09-19T10:01:36.053Z,56320.00
2018-09-19T10:02:36.013Z,54720.00
2018-09-19T10:03:35.971Z,54080.00
2018-09-19T10:04:35.972Z,39008.00
2018-09-19T10:05:35.946Z,19712.00
2018-09-19T10:06:36.018Z,40384.00
2018-09-19T10:07:35.930Z,56736.00
2018-09-19T10:08:35.941Z,57600.00
2018-09-19T10:09:35.900Z,59040.00
2018-09-19T10:10:35.896Z,58912.00
2018-09-19T10:11:35.989Z,59040.00
2018-09-19T10:12:35.889Z,58976.00
2018-09-19T10:13:35.910Z,60480.00
2018-09-19T10:14:35.869Z,60000.00
2018-09-19T10:15:35.846Z,57152.00
2018-09-19T10:16:35.846Z,33696.00
2018-09-19T10:17:35.825Z,28576.00
2018-09-19T10:18:35.863Z,52672.00
2018-09-19T10:19:35.802Z,56480.00
2018-09-19T10:20:35.826Z,57408.00
2018-09-19T10:21:35.810Z,58592.00
2018-09-19T10:22:35.840Z,58496.00
2018-09-19T10:23:35.786Z,58016.00
2018-09-19T10:24:35.753Z,58144.00
2018-09-19T10:25:35.774Z,58912.00
2018-09-19T10:26:35.757Z,59136.00
2018-09-19T10:27:35.729Z,51200.00
2018-09-19T10:28:35.788Z,28128.00
2018-09-19T10:29:35.856Z,35616.00
2018-09-19T10:30:35.693Z,50336.00
2018-09-19T10:31:35.695Z,54368.00
2018-09-19T10:32:35.684Z,58176.00
2018-09-19T10:33:35.659Z,60320.00
2018-09-19T10:34:35.676Z,58944.00
2018-09-19T10:35:35.704Z,57920.00
2018-09-19T10:36:35.624Z,59168.00
2018-09-19T10:37:35.647Z,59392.00
2018-09-19T10:38:35.614Z,36224.00
2018-09-19T10:39:35.602Z,32192.00
2018-09-19T10:40:35.584Z,55808.00
2018-09-19T10:41:35.582Z,60544.00
2018-09-19T10:42:35.629Z,61408.00
2018-09-19T10:43:35.571Z,60384.00
2018-09-19T10:44:35.553Z,60096.00
2018-09-19T10:45:35.538Z,48128.00
2018-09-19T10:46:35.533Z,31136.00
2018-09-19T10:47:35.538Z,49824.00
2018-09-19T10:48:35.570Z,61088.00
2018-09-19T10:49:35.556Z,61792.00
2018-09-19T10:50:35.491Z,63008.00
2018-09-19T10:51:35.477Z,58528.00
2018-09-19T10:52:35.465Z,35808.00
2018-09-19T10:53:35.471Z,40224.00
2018-09-19T10:54:35.460Z,61280.00
2018-09-19T10:55:35.430Z,61952.00
2018-09-19T10:56:35.434Z,57216.00
2018-09-19T10:57:35.431Z,37600.00
2018-09-19T10:58:35.432Z,26592.00
2018-09-19T10:59:35.425Z,33344.00
2018-09-19T11:00:35.443Z,27968.00
2018-09-19T11:01:35.393Z,31648.00
2018-09-19T11:02:35.451Z,39232.00
2018-09-19T11:03:35.369Z,26720.00
2018-09-19T11:04:35.343Z,36064.00
2018-09-19T11:05:35.413Z,35296.00
2018-09-19T11:06:35.323Z,43360.00
2018-09-19T11:07:35.326Z,59616.00
2018-09-19T11:08:35.328Z,39552.00
2018-09-19T11:09:35.301Z,43424.00
2018-09-19T11:10:35.281Z,42592.00
2018-09-19T11:11:35.319Z,36544.00
2018-09-19T11:12:35.258Z,38112.00
2018-09-19T11:13:35.282Z,41792.00
2018-09-19T11:14:35.273Z,37760.00
2018-09-19T11:15:35.250Z,34528.00
2018-09-19T11:16:35.232Z,39680.00
2018-09-19T11:17:35.220Z,34944.00
2018-09-19T11:18:35.235Z,30336.00
2018-09-19T11:19:35.196Z,38944.00
2018-09-19T11:20:35.185Z,55072.00
2018-09-19T11:21:35.184Z,64064.00
2018-09-19T11:22:35.163Z,63328.00
2018-09-19T11:23:35.173Z,43936.00
2018-09-19T11:24:35.292Z,29312.00
2018-09-19T11:25:35.149Z,33088.00
2018-09-19T11:26:35.187Z,12092.00
2018-09-19T11:27:35.131Z,12024.00
2018-09-19T11:28:35.139Z,11940.00
2018-09-19T11:29:35.143Z,12612.00
2018-09-19T11:30:35.085Z,44128.00
2018-09-19T11:31:35.078Z,59648.00
2018-09-19T11:32:35.077Z,60896.00
2018-09-19T11:33:35.071Z,61312.00
2018-09-19T11:34:35.047Z,62496.00
2018-09-19T11:35:35.039Z,60800.00
2018-09-19T11:36:35.101Z,56288.00
2018-09-19T11:37:35.032Z,40512.00
2018-09-19T11:38:35.031Z,19104.00
2018-09-19T11:39:34.996Z,11732.00
2018-09-19T11:40:34.996Z,11564.00
2018-09-19T11:41:34.983Z,11460.00
2018-09-19T11:42:34.954Z,11352.00
2018-09-19T11:43:34.975Z,11256.00
2018-09-19T11:44:34.955Z,11204.00
2018-09-19T11:45:34.977Z,11212.00
2018-09-19T11:46:34.990Z,11248.00
2018-09-19T11:47:34.914Z,11036.00
2018-09-19T11:48:35.049Z,11036.00
2018-09-19T11:49:34.906Z,11024.00
2018-09-19T11:50:34.880Z,10988.00
2018-09-19T11:51:34.865Z,10964.00
2018-09-19T11:52:34.863Z,10936.00
2018-09-19T11:53:34.890Z,10872.00
2018-09-19T11:54:34.837Z,10832.00
2018-09-19T11:55:34.834Z,10812.00
2018-09-19T11:56:34.824Z,10732.00
2018-09-19T11:57:34.815Z,10744.00
2018-09-19T11:58:34.812Z,10724.00
2018-09-19T11:59:34.791Z,10712.00
2018-09-19T12:00:34.821Z,10664.00
2018-09-19T12:01:34.777Z,10644.00
2018-09-19T12:02:34.757Z,10608.00
2018-09-19T12:03:34.951Z,10592.00
2018-09-19T12:04:34.742Z,10552.00
2018-09-19T12:05:34.728Z,10520.00
2018-09-19T12:06:34.727Z,10516.00
2018-09-19T12:07:34.743Z,10480.00
2018-09-19T12:08:34.752Z,10472.00
2018-09-19T12:09:34.735Z,10464.00
2018-09-19T12:10:34.670Z,10464.00
2018-09-19T12:11:34.679Z,10464.00
2018-09-19T12:12:34.654Z,10452.00
2018-09-19T12:13:34.637Z,10420.00
2018-09-19T12:14:34.662Z,10392.00
2018-09-19T12:15:34.655Z,10356.00
2018-09-19T12:16:34.599Z,10328.00
2018-09-19T12:17:34.609Z,10308.00
2018-09-19T12:18:34.593Z,10280.00
2018-09-19T12:19:34.598Z,10248.00
2018-09-19T12:20:34.566Z,10208.00
2018-09-19T12:21:34.553Z,10164.00
2018-09-19T12:22:34.550Z,10124.00
2018-09-19T12:23:34.544Z,10092.00
2018-09-19T12:24:34.526Z,10068.00
2018-09-19T12:25:34.510Z,10060.00
2018-09-19T12:26:34.589Z,10044.00